createdAt,value
2023-11-24T00:00:47.726Z,18.37
2023-11-24T00:03:15.953Z,19.50
2023-11-24T00:05:44.807Z,18.83
2023-11-24T00:08:12.851Z,18.37
2023-11-24T00:10:41.475Z,18.60
2023-11-24T00:13:09.935Z,18.10
2023-11-24T00:15:38.919Z,18.80
2023-11-24T00:18:07.607Z,18.47
2023-11-24T00:20:35.926Z,18.20
2023-11-24T00:23:04.864Z,19.40
2023-11-24T00:25:34.370Z,16.57
2023-11-24T00:28:03.191Z,18.27
2023-11-24T00:30:34.040Z,16.97
2023-11-24T00:33:03.938Z,17.43
2023-11-24T00:35:32.867Z,18.30
2023-11-24T00:38:04.108Z,17.57
2023-11-24T00:40:36.330Z,17.50
2023-11-24T00:43:05.601Z,17.63
2023-11-24T00:45:33.887Z,18.83
2023-11-24T00:48:02.816Z,17.97
2023-11-24T00:50:31.023Z,16.57
2023-11-24T00:53:00.127Z,16.93
2023-11-24T00:55:32.427Z,16.43
2023-11-24T00:58:05.843Z,16.70
2023-11-24T01:00:34.447Z,16.10
2023-11-24T01:03:03.159Z,16.17
2023-11-24T01:05:32.108Z,16.60
2023-11-24T01:08:00.559Z,16.83
2023-11-24T01:10:29.162Z,15.90
2023-11-24T01:12:57.620Z,16.77
2023-11-24T01:15:25.792Z,17.33
2023-11-24T01:17:56.418Z,15.90
2023-11-24T01:20:26.737Z,16.73
2023-11-24T01:22:57.787Z,15.70
2023-11-24T01:25:26.918Z,17.07
2023-11-24T01:27:56.002Z,16.50
2023-11-24T01:30:24.468Z,15.87
2023-11-24T01:32:53.139Z,16.60
2023-11-24T01:35:21.624Z,16.30
2023-11-24T01:37:50.702Z,15.63
2023-11-24T01:40:22.212Z,15.90
2023-11-24T01:42:50.883Z,15.27
2023-11-24T01:45:19.925Z,15.60
2023-11-24T01:47:48.892Z,15.57
2023-11-24T01:50:18.010Z,16.10
2023-11-24T01:52:46.498Z,15.50
2023-11-24T01:55:15.556Z,16.23
2023-11-24T01:57:44.180Z,16.47
2023-11-24T02:00:15.191Z,15.80
2023-11-24T02:02:44.252Z,16.20
2023-11-24T02:05:13.701Z,15.93
2023-11-24T02:07:43.575Z,14.87
2023-11-24T02:10:13.173Z,15.23
2023-11-24T02:12:41.454Z,15.17
2023-11-24T02:15:10.758Z,15.73
2023-11-24T02:17:42.725Z,15.17
2023-11-24T02:20:15.433Z,14.80
2023-11-24T02:22:50.666Z,14.40
2023-11-24T02:25:21.491Z,15.63
2023-11-24T02:27:51.754Z,15.47
2023-11-24T02:30:21.925Z,15.80
2023-11-24T02:32:50.770Z,16.80
2023-11-24T02:35:19.198Z,13.87
2023-11-24T02:37:48.292Z,16.00
2023-11-24T02:40:17.121Z,15.93
2023-11-24T02:42:45.300Z,15.80
2023-11-24T02:45:13.745Z,15.93
2023-11-24T02:47:42.236Z,15.80
2023-11-24T02:50:10.835Z,15.90
2023-11-24T02:52:38.949Z,16.30
2023-11-24T02:55:08.141Z,15.67
2023-11-24T02:57:36.097Z,17.07
2023-11-24T03:00:06.785Z,15.53
2023-11-24T03:02:35.905Z,14.77
2023-11-24T03:05:05.585Z,15.27
2023-11-24T03:07:36.061Z,14.23
2023-11-24T03:10:04.799Z,14.57
2023-11-24T03:12:33.041Z,13.60
2023-11-24T03:15:01.588Z,13.50
2023-11-24T03:17:30.149Z,13.83
2023-11-24T03:19:59.168Z,12.97
2023-11-24T03:22:26.956Z,13.73
2023-11-24T03:24:55.007Z,14.80
2023-11-24T03:27:23.166Z,13.17
2023-11-24T03:29:51.727Z,13.10
2023-11-24T03:32:19.714Z,13.67
2023-11-24T03:34:50.274Z,13.23
2023-11-24T03:37:18.072Z,13.90
2023-11-24T03:39:46.400Z,13.30
2023-11-24T03:42:14.806Z,13.40
2023-11-24T03:44:43.105Z,13.33
2023-11-24T03:47:11.324Z,12.67
2023-11-24T03:49:42.299Z,13.40
2023-11-24T03:52:10.760Z,12.37
2023-11-24T03:54:45.123Z,12.53
2023-11-24T03:57:12.949Z,11.93
2023-11-24T03:59:41.041Z,12.60
2023-11-24T04:02:09.175Z,11.83
2023-11-24T04:04:37.367Z,12.17
2023-11-24T04:07:05.449Z,12.97
2023-11-24T04:09:33.975Z,12.03
2023-11-24T04:12:02.367Z,12.73
2023-11-24T04:14:30.549Z,11.53
2023-11-24T04:17:01.319Z,12.13
2023-11-24T04:19:30.050Z,11.43
2023-11-24T04:21:58.249Z,12.87
2023-11-24T04:24:26.323Z,12.53
2023-11-24T04:26:55.165Z,11.87
2023-11-24T04:29:23.332Z,12.50
2023-11-24T04:31:51.510Z,12.23
2023-11-24T04:34:19.729Z,11.97
2023-11-24T04:36:49.332Z,12.27
2023-11-24T04:39:17.117Z,10.73
2023-11-24T04:41:48.391Z,11.93
2023-11-24T04:44:16.772Z,11.77
2023-11-24T04:46:45.029Z,11.63
2023-11-24T04:49:13.257Z,12.20
2023-11-24T04:51:42.022Z,12.40
2023-11-24T04:54:10.840Z,11.67
2023-11-24T04:56:38.821Z,12.13
2023-11-24T04:59:07.275Z,11.53
2023-11-24T05:01:35.327Z,12.53
2023-11-24T05:04:03.914Z,12.53
2023-11-24T05:06:32.406Z,11.27
2023-11-24T05:09:00.212Z,11.73
2023-11-24T05:11:29.781Z,12.13
2023-11-24T05:13:57.885Z,11.73
2023-11-24T05:16:25.984Z,11.87
2023-11-24T05:18:54.146Z,11.97
2023-11-24T05:21:24.699Z,10.77
2023-11-24T05:23:52.866Z,11.73
2023-11-24T05:26:24.410Z,11.17
2023-11-24T05:28:52.681Z,10.63
2023-11-24T05:31:21.136Z,11.10
2023-11-24T05:33:49.929Z,11.27
2023-11-24T05:36:20.327Z,11.53
2023-11-24T05:38:48.175Z,11.47
2023-11-24T05:41:16.579Z,12.07
2023-11-24T05:43:45.135Z,11.20
2023-11-24T05:46:13.324Z,11.20
2023-11-24T05:48:41.488Z,10.77
2023-11-24T05:51:09.637Z,11.00
2023-11-24T05:53:37.802Z,11.50
2023-11-24T05:56:08.902Z,11.07
2023-11-24T05:58:37.518Z,11.53
2023-11-24T06:01:06.049Z,11.43
2023-11-24T06:03:34.393Z,11.93
2023-11-24T06:06:02.618Z,11.13
2023-11-24T06:08:32.546Z,11.23
2023-11-24T06:11:01.097Z,11.93
2023-11-24T06:13:29.090Z,11.17
2023-11-24T06:16:02.624Z,12.07
2023-11-24T06:18:32.279Z,10.87
2023-11-24T06:21:00.384Z,11.87
2023-11-24T06:23:28.334Z,12.23
2023-11-24T06:25:56.391Z,11.63
2023-11-24T06:28:26.346Z,12.07
2023-11-24T06:30:54.091Z,12.57
2023-11-24T06:33:21.940Z,11.37
2023-11-24T06:35:50.792Z,12.10
2023-11-24T06:38:18.797Z,11.60
2023-11-24T06:40:46.830Z,13.73
2023-11-24T06:43:14.722Z,12.77
2023-11-24T06:45:42.703Z,13.10
2023-11-24T06:48:10.726Z,12.37
2023-11-24T06:50:38.851Z,12.50
2023-11-24T06:53:06.977Z,11.87
2023-11-24T06:55:35.481Z,13.30
2023-11-24T06:58:06.035Z,12.77
2023-11-24T07:00:34.400Z,12.90
2023-11-24T07:03:02.610Z,12.83
2023-11-24T07:05:31.220Z,13.43
2023-11-24T07:07:59.569Z,13.17
2023-11-24T07:10:28.014Z,13.33
2023-11-24T07:12:56.164Z,13.50
2023-11-24T07:15:24.509Z,13.97
2023-11-24T07:17:53.051Z,12.87
2023-11-24T07:20:23.282Z,14.17
2023-11-24T07:22:51.724Z,13.73
2023-11-24T07:25:19.791Z,12.83
2023-11-24T07:27:48.151Z,13.67
2023-11-24T07:30:16.835Z,12.93
2023-11-24T07:32:45.043Z,13.17
2023-11-24T07:35:15.734Z,13.43
2023-11-24T07:37:44.271Z,17.33
2023-11-24T07:40:18.290Z,13.67
2023-11-24T07:42:48.222Z,15.13
2023-11-24T07:45:17.107Z,13.67
2023-11-24T07:47:46.012Z,13.03
2023-11-24T07:50:14.646Z,13.53
2023-11-24T07:52:45.453Z,14.50
2023-11-24T07:55:15.121Z,13.40
2023-11-24T07:57:43.661Z,12.27
2023-11-24T08:00:14.623Z,14.80
2023-11-24T08:02:44.081Z,17.97
2023-11-24T08:05:13.721Z,13.30
2023-11-24T08:07:42.018Z,12.40
2023-11-24T08:10:10.716Z,11.60
2023-11-24T08:12:47.545Z,11.43
2023-11-24T08:15:18.690Z,11.70
2023-11-24T08:17:47.058Z,12.67
2023-11-24T08:20:15.388Z,12.00
2023-11-24T08:22:43.762Z,14.27
2023-11-24T08:25:13.654Z,13.77
2023-11-24T08:27:41.806Z,13.80
2023-11-24T08:30:14.242Z,12.40
2023-11-24T08:32:45.664Z,12.90
2023-11-24T08:35:14.771Z,11.27
2023-11-24T08:37:43.100Z,11.77
2023-11-24T08:40:16.648Z,11.10
2023-11-24T08:42:46.391Z,13.27
2023-11-24T08:45:18.348Z,13.30
2023-11-24T08:47:49.928Z,12.47
2023-11-24T08:50:19.811Z,11.30
2023-11-24T08:52:49.498Z,12.00
2023-11-24T08:55:18.386Z,10.93
2023-11-24T08:57:47.191Z,11.63
2023-11-24T09:00:18.426Z,11.90
2023-11-24T09:02:47.995Z,12.53
2023-11-24T09:05:17.053Z,12.63
2023-11-24T09:07:46.054Z,26.07
2023-11-24T09:10:16.709Z,13.63
2023-11-24T09:12:44.596Z,13.30
2023-11-24T09:15:13.075Z,12.87
2023-11-24T09:17:41.407Z,12.17
2023-11-24T09:20:18.371Z,13.57
2023-11-24T09:22:46.959Z,11.83
2023-11-24T09:25:17.683Z,12.03
2023-11-24T09:27:46.279Z,11.90
2023-11-24T09:30:17.361Z,11.43
2023-11-24T09:32:47.410Z,11.40
2023-11-24T09:35:18.443Z,10.73
2023-11-24T09:37:46.937Z,10.40
2023-11-24T09:40:18.148Z,11.00
2023-11-24T09:42:46.906Z,11.17
2023-11-24T09:45:20.130Z,11.63
2023-11-24T09:47:51.445Z,11.87
2023-11-24T09:50:28.065Z,11.60
2023-11-24T09:53:00.584Z,12.93
2023-11-24T09:55:32.343Z,20.07
2023-11-24T09:58:00.736Z,13.17
2023-11-24T10:00:29.882Z,12.70
2023-11-24T10:03:04.556Z,13.37
2023-11-24T10:05:32.484Z,11.93
2023-11-24T10:08:02.480Z,11.77
2023-11-24T10:10:31.168Z,12.00
2023-11-24T10:13:01.612Z,11.93
2023-11-24T10:15:30.550Z,11.37
2023-11-24T10:17:58.878Z,11.30
2023-11-24T10:20:30.307Z,11.60
2023-11-24T10:23:02.144Z,10.73
2023-11-24T10:25:35.757Z,10.57
2023-11-24T10:28:07.833Z,9.87
2023-11-24T10:30:36.177Z,10.50
2023-11-24T10:33:07.950Z,9.90
2023-11-24T10:35:56.219Z,10.30
2023-11-24T10:38:24.847Z,10.67
2023-11-24T10:40:53.272Z,11.77
2023-11-24T10:43:21.452Z,10.77
2023-11-24T10:45:52.552Z,12.27
2023-11-24T10:48:28.373Z,10.40
2023-11-24T10:51:36.271Z,10.43
2023-11-24T10:54:05.492Z,10.97
2023-11-24T10:56:38.807Z,11.03
2023-11-24T10:59:09.008Z,12.63
2023-11-24T11:01:37.683Z,12.23
2023-11-24T11:04:06.391Z,11.97
2023-11-24T11:07:01.307Z,11.80
2023-11-24T11:09:41.890Z,11.53
2023-11-24T11:12:17.780Z,11.27
2023-11-24T11:14:46.087Z,11.07
2023-11-24T11:17:16.744Z,12.40
2023-11-24T11:20:00.861Z,10.97
2023-11-24T11:22:30.693Z,11.23
2023-11-24T11:25:14.250Z,11.70
2023-11-24T11:27:47.084Z,10.60
2023-11-24T11:30:27.951Z,12.67
2023-11-24T11:33:14.573Z,12.03
2023-11-24T11:35:50.741Z,11.60
2023-11-24T11:38:51.687Z,11.90
2023-11-24T11:41:43.060Z,12.07
2023-11-24T11:44:27.945Z,10.87
2023-11-24T11:47:23.206Z,10.83
2023-11-24T11:49:58.488Z,12.97
2023-11-24T11:52:29.098Z,12.00
2023-11-24T11:54:58.454Z,10.07
2023-11-24T11:57:29.785Z,10.63
2023-11-24T11:59:57.712Z,11.80
2023-11-24T12:02:26.165Z,10.57
2023-11-24T12:04:54.002Z,11.30
2023-11-24T12:07:22.353Z,9.87
2023-11-24T12:09:51.094Z,9.37
2023-11-24T12:12:20.955Z,10.30
2023-11-24T12:14:50.145Z,10.30
2023-11-24T12:17:19.060Z,11.57
2023-11-24T12:19:47.858Z,11.47
2023-11-24T12:22:20.088Z,10.83
2023-11-24T12:24:48.380Z,11.33
2023-11-24T12:27:16.595Z,9.37
2023-11-24T12:29:47.666Z,10.07
2023-11-24T12:32:15.911Z,9.90
2023-11-24T12:34:47.427Z,9.80
2023-11-24T12:37:30.645Z,10.40
2023-11-24T12:39:59.907Z,10.10
2023-11-24T12:42:32.142Z,10.00
2023-11-24T12:45:01.184Z,9.77
2023-11-24T12:50:21.951Z,10.13
2023-11-24T12:52:51.444Z,8.70
2023-11-24T12:55:19.956Z,9.83
2023-11-24T12:57:49.198Z,9.57
2023-11-24T13:00:18.425Z,8.90
2023-11-24T13:02:47.238Z,10.30
2023-11-24T13:05:18.061Z,9.73
2023-11-24T13:07:46.768Z,9.03
2023-11-24T13:10:15.399Z,9.17
2023-11-24T13:12:44.551Z,10.50
2023-11-24T13:15:14.328Z,11.17
2023-11-24T13:17:43.089Z,10.20
2023-11-24T13:20:15.270Z,9.13
2023-11-24T13:22:45.169Z,9.20
2023-11-24T13:25:15.772Z,8.97
2023-11-24T13:27:44.549Z,8.90
2023-11-24T13:30:13.675Z,8.03
2023-11-24T13:32:43.230Z,8.17
2023-11-24T13:35:12.375Z,8.83
2023-11-24T13:37:40.751Z,8.50
2023-11-24T13:40:16.218Z,8.67
2023-11-24T13:42:45.631Z,8.77
2023-11-24T13:45:14.212Z,9.43
2023-11-24T13:47:46.248Z,8.43
2023-11-24T13:50:15.769Z,8.67
2023-11-24T13:52:48.838Z,9.07
2023-11-24T13:55:17.405Z,9.00
2023-11-24T13:57:46.931Z,8.23
2023-11-24T14:00:18.356Z,8.50
2023-11-24T14:02:46.864Z,8.60
2023-11-24T14:05:15.043Z,8.93
2023-11-24T14:07:46.298Z,9.10
2023-11-24T14:10:18.232Z,9.57
2023-11-24T14:12:49.618Z,11.03
2023-11-24T14:15:18.258Z,10.37
2023-11-24T14:17:46.599Z,9.00
2023-11-24T14:20:15.106Z,8.63
2023-11-24T14:22:43.559Z,8.87
2023-11-24T14:25:12.615Z,8.43
2023-11-24T14:27:41.399Z,8.97
2023-11-24T14:30:09.918Z,8.33
2023-11-24T14:32:40.622Z,9.23
2023-11-24T14:35:12.617Z,8.90
2023-11-24T14:37:43.334Z,12.10
2023-11-24T14:40:20.907Z,11.50
2023-11-24T14:42:51.491Z,10.90
2023-11-24T14:45:22.648Z,10.63
2023-11-24T14:47:51.880Z,9.77
2023-11-24T14:50:23.861Z,10.00
2023-11-24T14:52:52.408Z,10.17
2023-11-24T14:55:23.466Z,10.27
2023-11-24T14:57:53.229Z,9.67
2023-11-24T15:00:32.212Z,14.37
2023-11-24T15:03:08.895Z,12.80
2023-11-24T15:05:40.184Z,10.43
2023-11-24T15:08:15.801Z,10.73
2023-11-24T15:10:44.755Z,12.93
2023-11-24T15:13:32.211Z,12.03
2023-11-24T15:16:00.361Z,11.57
2023-11-24T15:18:28.434Z,12.20
2023-11-24T15:20:57.856Z,11.93
2023-11-24T15:23:25.900Z,11.27
2023-11-24T15:25:56.445Z,14.10
2023-11-24T15:28:27.422Z,13.13
2023-11-24T15:30:57.428Z,11.67
2023-11-24T15:33:32.111Z,11.13
2023-11-24T15:36:02.064Z,9.87
2023-11-24T15:38:30.201Z,9.83
2023-11-24T15:40:59.561Z,9.73
2023-11-24T15:43:28.052Z,9.13
2023-11-24T15:45:56.970Z,9.40
2023-11-24T15:48:26.690Z,9.40
2023-11-24T15:50:54.882Z,7.93
2023-11-24T15:53:23.430Z,9.17
2023-11-24T15:55:53.020Z,8.97
2023-11-24T15:58:26.480Z,8.70
2023-11-24T16:00:58.500Z,8.93
2023-11-24T16:03:26.760Z,8.73
2023-11-24T16:05:56.527Z,7.77
2023-11-24T16:08:33.521Z,8.53
2023-11-24T16:11:11.465Z,8.67
2023-11-24T16:13:58.040Z,12.53
2023-11-24T16:16:29.688Z,9.70
2023-11-24T16:18:58.176Z,10.87
2023-11-24T16:21:28.978Z,9.97
2023-11-24T16:23:57.966Z,9.90
2023-11-24T16:26:25.968Z,10.40
2023-11-24T16:28:53.940Z,10.57
2023-11-24T16:31:22.146Z,10.00
2023-11-24T16:33:50.367Z,10.30
2023-11-24T16:36:19.410Z,10.30
2023-11-24T16:38:47.582Z,11.53
2023-11-24T16:41:16.734Z,9.60
2023-11-24T16:43:45.141Z,9.80
2023-11-24T16:46:14.373Z,9.43
2023-11-24T16:48:43.012Z,10.37
2023-11-24T16:51:11.721Z,9.60
2023-11-24T16:53:42.714Z,9.20
2023-11-24T16:56:10.933Z,9.63
2023-11-24T16:58:39.129Z,9.90
2023-11-24T17:01:07.461Z,9.63
2023-11-24T17:03:39.005Z,10.87
2023-11-24T17:06:09.144Z,10.17
2023-11-24T17:08:40.880Z,10.80
2023-11-24T17:11:09.618Z,10.53
2023-11-24T17:13:40.833Z,12.83
2023-11-24T17:16:09.886Z,11.63
2023-11-24T17:18:39.097Z,11.80
2023-11-24T17:21:07.374Z,10.60
2023-11-24T17:23:36.534Z,10.63
2023-11-24T17:26:04.998Z,10.43
2023-11-24T17:28:33.605Z,9.03
2023-11-24T17:31:05.279Z,9.70
2023-11-24T17:33:33.742Z,9.00
2023-11-24T17:36:01.852Z,7.90
2023-11-24T17:38:30.185Z,8.50
2023-11-24T17:40:58.200Z,8.10
2023-11-24T17:43:26.552Z,8.93
2023-11-24T17:45:55.147Z,8.57
2023-11-24T17:48:24.651Z,9.20
2023-11-24T17:50:52.866Z,9.37
2023-11-24T17:53:21.271Z,9.80
2023-11-24T17:55:49.163Z,10.03
2023-11-24T17:58:18.078Z,10.67
2023-11-24T18:00:47.055Z,10.27
2023-11-24T18:03:15.499Z,9.57
2023-11-24T18:05:44.125Z,9.97
2023-11-24T18:08:12.919Z,11.17
2023-11-24T18:10:41.191Z,10.87
2023-11-24T18:13:09.660Z,9.33
2023-11-24T18:15:40.579Z,11.17
2023-11-24T18:18:08.725Z,12.27
2023-11-24T18:20:36.884Z,11.37
2023-11-24T18:23:05.241Z,11.03
2023-11-24T18:25:39.874Z,10.83
2023-11-24T18:28:09.639Z,10.40
2023-11-24T18:30:42.068Z,9.90
2023-11-24T18:33:11.112Z,10.20
2023-11-24T18:35:40.173Z,12.23
2023-11-24T18:38:08.378Z,12.43
2023-11-24T18:40:37.139Z,12.70
2023-11-24T18:43:05.964Z,11.27
2023-11-24T18:45:35.811Z,11.10
2023-11-24T18:48:04.769Z,11.00
2023-11-24T18:50:33.599Z,11.27
2023-11-24T18:53:01.566Z,11.27
2023-11-24T18:55:30.136Z,9.87
2023-11-24T18:58:02.209Z,9.37
2023-11-24T19:00:31.120Z,9.43
2023-11-24T19:03:02.111Z,9.30
2023-11-24T19:05:30.209Z,9.20
2023-11-24T19:07:59.460Z,9.00
2023-11-24T19:10:29.101Z,10.13
2023-11-24T19:12:57.493Z,9.37
2023-11-24T19:15:25.222Z,9.53
2023-11-24T19:17:53.389Z,9.50
2023-11-24T19:20:21.330Z,9.10
2023-11-24T19:22:50.055Z,9.27
2023-11-24T19:25:19.269Z,9.60
2023-11-24T19:27:48.043Z,9.33
2023-11-24T19:30:16.335Z,8.77
2023-11-24T19:32:44.829Z,8.43
2023-11-24T19:35:13.571Z,8.67
2023-11-24T19:37:43.188Z,8.23
2023-11-24T19:40:11.371Z,8.90
2023-11-24T19:42:39.539Z,9.90
2023-11-24T19:45:08.110Z,9.67
2023-11-24T19:47:36.296Z,8.60
2023-11-24T19:50:07.593Z,8.97
2023-11-24T19:52:36.445Z,7.93
2023-11-24T19:55:05.015Z,8.47
2023-11-24T19:57:35.204Z,9.03
2023-11-24T20:00:09.681Z,8.30
2023-11-24T20:02:38.210Z,8.40
2023-11-24T20:05:07.564Z,7.60
2023-11-24T20:07:35.885Z,7.80
2023-11-24T20:10:06.723Z,6.57
2023-11-24T20:12:35.442Z,7.97
2023-11-24T20:15:04.494Z,7.57
2023-11-24T20:17:34.834Z,7.77
2023-11-24T20:20:03.674Z,7.53
2023-11-24T20:22:32.076Z,8.23
2023-11-24T20:24:59.891Z,7.40
2023-11-24T20:27:27.536Z,6.73
2023-11-24T20:29:56.090Z,6.70
2023-11-24T20:32:24.286Z,6.83
2023-11-24T20:34:52.701Z,6.63
2023-11-24T20:37:21.118Z,6.90
2023-11-24T20:40:02.396Z,6.70
2023-11-24T20:42:30.762Z,6.60
2023-11-24T20:44:58.999Z,6.70
2023-11-24T20:47:27.674Z,7.17
2023-11-24T20:49:56.751Z,6.47
2023-11-24T20:52:24.944Z,7.47
2023-11-24T20:54:52.794Z,7.50
2023-11-24T20:57:21.136Z,7.17
2023-11-24T20:59:49.403Z,7.83
2023-11-24T21:02:18.947Z,7.67
2023-11-24T21:04:47.793Z,7.40
2023-11-24T21:07:26.071Z,7.10
2023-11-24T21:09:57.898Z,7.07
2023-11-24T21:12:27.108Z,7.63
2023-11-24T21:14:55.560Z,7.27
2023-11-24T21:17:25.449Z,7.73
2023-11-24T21:19:57.718Z,7.50
2023-11-24T21:22:25.862Z,8.37
2023-11-24T21:24:57.481Z,7.43
2023-11-24T21:27:27.623Z,9.17
2023-11-24T21:29:55.813Z,7.93
2023-11-24T21:32:23.957Z,8.53
2023-11-24T21:34:51.947Z,8.30
2023-11-24T21:37:22.891Z,8.40
2023-11-24T21:39:50.676Z,9.63
2023-11-24T21:42:19.199Z,8.43
2023-11-24T21:44:50.320Z,9.10
2023-11-24T21:47:19.407Z,8.60
2023-11-24T21:49:48.202Z,8.83
2023-11-24T21:52:17.264Z,9.47
2023-11-24T21:54:48.169Z,9.27
2023-11-24T21:57:16.728Z,9.23
2023-11-24T21:59:44.698Z,9.37
2023-11-24T22:02:14.821Z,9.50
2023-11-24T22:04:43.201Z,9.63
2023-11-24T22:07:11.397Z,9.30
2023-11-24T22:09:40.997Z,9.77
2023-11-24T22:12:09.918Z,9.80
2023-11-24T22:14:37.928Z,10.07
2023-11-24T22:17:06.929Z,10.37
2023-11-24T22:19:35.727Z,10.50
2023-11-24T22:22:04.677Z,10.57
2023-11-24T22:24:32.858Z,10.40
2023-11-24T22:27:02.934Z,9.40
2023-11-24T22:29:31.628Z,10.20
2023-11-24T22:32:01.073Z,10.73
2023-11-24T22:34:29.530Z,10.50
2023-11-24T22:36:58.073Z,10.23
2023-11-24T22:39:26.521Z,10.87
2023-11-24T22:41:55.040Z,10.93
2023-11-24T22:44:24.821Z,10.87
2023-11-24T22:46:55.035Z,11.17
2023-11-24T22:49:23.359Z,10.37
2023-11-24T22:51:51.641Z,10.53
2023-11-24T22:54:20.111Z,10.70
2023-11-24T22:56:48.460Z,10.00
2023-11-24T22:59:18.385Z,10.53
2023-11-24T23:01:46.558Z,9.90
2023-11-24T23:04:14.780Z,9.57
2023-11-24T23:06:43.754Z,9.97
2023-11-24T23:09:12.132Z,9.37
2023-11-24T23:11:42.169Z,10.87
2023-11-24T23:14:12.095Z,10.90
2023-11-24T23:16:41.319Z,9.90
2023-11-24T23:19:09.794Z,10.80
2023-11-24T23:21:38.308Z,9.90
2023-11-24T23:24:07.484Z,10.30
2023-11-24T23:26:35.626Z,10.20
2023-11-24T23:29:05.063Z,8.80
2023-11-24T23:31:34.283Z,8.77
2023-11-24T23:34:03.120Z,8.53
2023-11-24T23:36:31.617Z,9.13
2023-11-24T23:39:00.216Z,9.27
2023-11-24T23:41:36.669Z,9.23
2023-11-24T23:44:06.061Z,8.43
2023-11-24T23:46:33.935Z,9.40
2023-11-24T23:49:02.694Z,9.20
2023-11-24T23:51:32.420Z,8.90
2023-11-24T23:54:01.435Z,9.00
2023-11-24T23:56:30.757Z,9.97
2023-11-24T23:59:03.803Z,9.83
